sensor_id;sensor_type;location;lat;lon;timestamp;P1;durP1;ratioP1;P2;durP2;ratioP2
69931;SDS011;57243;52.064;5.116;2023-03-01T15:30:57;2.15;;;1.30;;
69931;SDS011;57243;52.064;5.116;2023-03-01T15:33:44;1.67;;;1.10;;
69931;SDS011;57243;52.064;5.116;2023-03-01T15:38:59;3.20;;;1.00;;
69931;SDS011;57243;52.064;5.116;2023-03-01T15:41:27;2.55;;;1.25;;
69931;SDS011;57243;52.064;5.116;2023-03-01T15:44:15;5.65;;;1.20;;
69931;SDS011;57243;52.064;5.116;2023-03-01T15:46:51;2.45;;;1.42;;
69931;SDS011;57243;52.064;5.116;2023-03-01T15:52:01;3.80;;;1.30;;
69931;SDS011;57243;52.064;5.116;2023-03-01T15:54:27;4.57;;;1.23;;
69931;SDS011;57243;52.064;5.116;2023-03-01T15:56:54;5.32;;;1.30;;
69931;SDS011;57243;52.064;5.116;2023-03-01T15:59:20;2.45;;;1.10;;
69931;SDS011;57243;52.064;5.116;2023-03-01T16:01:47;13.32;;;2.60;;
69931;SDS011;57243;52.064;5.116;2023-03-01T16:04:15;6.47;;;1.88;;
69931;SDS011;57243;52.064;5.116;2023-03-01T16:06:54;15.75;;;2.78;;
69931;SDS011;57243;52.064;5.116;2023-03-01T16:09:23;11.90;;;2.55;;
69931;SDS011;57243;52.064;5.116;2023-03-01T16:11:50;14.05;;;2.92;;
69931;SDS011;57243;52.064;5.116;2023-03-01T16:14:16;17.20;;;3.38;;
69931;SDS011;57243;52.064;5.116;2023-03-01T16:16:42;29.40;;;5.57;;
69931;SDS011;57243;52.064;5.116;2023-03-01T16:19:09;26.52;;;4.25;;
69931;SDS011;57243;52.064;5.116;2023-03-01T16:21:35;36.47;;;5.93;;
69931;SDS011;57243;52.064;5.116;2023-03-01T16:24:01;27.83;;;5.47;;
69931;SDS011;57243;52.064;5.116;2023-03-01T16:26:27;24.13;;;5.73;;
69931;SDS011;57243;52.064;5.116;2023-03-01T16:28:56;17.02;;;4.72;;
69931;SDS011;57243;52.064;5.116;2023-03-01T16:31:22;16.50;;;4.80;;
69931;SDS011;57243;52.064;5.116;2023-03-01T16:33:49;16.92;;;3.83;;
69931;SDS011;57243;52.064;5.116;2023-03-01T16:36:17;16.45;;;4.28;;
69931;SDS011;57243;52.064;5.116;2023-03-01T16:38:44;20.25;;;4.22;;
69931;SDS011;57243;52.064;5.116;2023-03-01T16:41:11;16.55;;;3.80;;
69931;SDS011;57243;52.064;5.116;2023-03-01T16:43:38;13.63;;;4.10;;
69931;SDS011;57243;52.064;5.116;2023-03-01T16:49:00;15.45;;;3.83;;
69931;SDS011;57243;52.064;5.116;2023-03-01T16:51:25;13.20;;;3.30;;
69931;SDS011;57243;52.064;5.116;2023-03-01T16:53:51;12.35;;;3.90;;
69931;SDS011;57243;52.064;5.116;2023-03-01T16:56:17;14.30;;;3.75;;
69931;SDS011;57243;52.064;5.116;2023-03-01T16:58:43;17.50;;;3.90;;
69931;SDS011;57243;52.064;5.116;2023-03-01T17:01:19;15.75;;;3.65;;
69931;SDS011;57243;52.064;5.116;2023-03-01T17:03:48;16.90;;;4.43;;
69931;SDS011;57243;52.064;5.116;2023-03-01T17:06:17;14.47;;;3.50;;
69931;SDS011;57243;52.064;5.116;2023-03-01T17:08:45;15.57;;;4.03;;
69931;SDS011;57243;52.064;5.116;2023-03-01T17:11:12;15.23;;;4.10;;
69931;SDS011;57243;52.064;5.116;2023-03-01T17:13:40;15.25;;;3.63;;
69931;SDS011;57243;52.064;5.116;2023-03-01T17:16:06;10.95;;;4.32;;
69931;SDS011;57243;52.064;5.116;2023-03-01T17:18:33;17.33;;;7.23;;
69931;SDS011;57243;52.064;5.116;2023-03-01T17:20:59;20.45;;;9.50;;
69931;SDS011;57243;52.064;5.116;2023-03-01T17:23:26;18.67;;;10.57;;
69931;SDS011;57243;52.064;5.116;2023-03-01T17:25:53;21.23;;;11.88;;
69931;SDS011;57243;52.064;5.116;2023-03-01T17:28:20;24.25;;;13.00;;
69931;SDS011;57243;52.064;5.116;2023-03-01T17:30:46;25.77;;;13.50;;
69931;SDS011;57243;52.064;5.116;2023-03-01T17:33:12;24.30;;;13.23;;
69931;SDS011;57243;52.064;5.116;2023-03-01T17:35:38;21.17;;;12.00;;
69931;SDS011;57243;52.064;5.116;2023-03-01T17:38:04;21.50;;;11.80;;
69931;SDS011;57243;52.064;5.116;2023-03-01T17:40:30;19.40;;;11.40;;
69931;SDS011;57243;52.064;5.116;2023-03-01T17:42:57;19.27;;;10.43;;
69931;SDS011;57243;52.064;5.116;2023-03-01T17:45:22;20.50;;;10.65;;
69931;SDS011;57243;52.064;5.116;2023-03-01T17:47:48;17.60;;;10.23;;
69931;SDS011;57243;52.064;5.116;2023-03-01T17:50:14;17.45;;;10.05;;
69931;SDS011;57243;52.064;5.116;2023-03-01T17:52:40;16.02;;;8.93;;
69931;SDS011;57243;52.064;5.116;2023-03-01T17:55:06;14.93;;;8.73;;
69931;SDS011;57243;52.064;5.116;2023-03-01T17:57:32;15.43;;;8.65;;
69931;SDS011;57243;52.064;5.116;2023-03-01T17:59:58;14.87;;;7.70;;
69931;SDS011;57243;52.064;5.116;2023-03-01T18:02:23;16.02;;;7.72;;
69931;SDS011;57243;52.064;5.116;2023-03-01T18:04:50;11.60;;;7.25;;
69931;SDS011;57243;52.064;5.116;2023-03-01T18:07:17;11.13;;;7.03;;
69931;SDS011;57243;52.064;5.116;2023-03-01T18:09:43;12.68;;;7.20;;
69931;SDS011;57243;52.064;5.116;2023-03-01T18:12:09;11.88;;;7.10;;
69931;SDS011;57243;52.064;5.116;2023-03-01T18:14:35;11.97;;;7.10;;
69931;SDS011;57243;52.064;5.116;2023-03-01T18:17:01;14.32;;;6.78;;
69931;SDS011;57243;52.064;5.116;2023-03-01T18:19:30;11.85;;;5.82;;
69931;SDS011;57243;52.064;5.116;2023-03-01T18:21:56;9.95;;;4.70;;
69931;SDS011;57243;52.064;5.116;2023-03-01T18:24:22;10.43;;;3.73;;
69931;SDS011;57243;52.064;5.116;2023-03-01T18:26:48;7.78;;;3.67;;
69931;SDS011;57243;52.064;5.116;2023-03-01T18:29:14;7.43;;;3.60;;
69931;SDS011;57243;52.064;5.116;2023-03-01T18:31:40;8.05;;;3.65;;
69931;SDS011;57243;52.064;5.116;2023-03-01T18:34:05;5.97;;;3.60;;
69931;SDS011;57243;52.064;5.116;2023-03-01T18:36:32;9.77;;;4.18;;
69931;SDS011;57243;52.064;5.116;2023-03-01T18:39:03;7.13;;;3.20;;
69931;SDS011;57243;52.064;5.116;2023-03-01T18:41:29;8.80;;;3.72;;
69931;SDS011;57243;52.064;5.116;2023-03-01T18:43:57;7.20;;;3.15;;
69931;SDS011;57243;52.064;5.116;2023-03-01T18:46:24;9.15;;;3.72;;
69931;SDS011;57243;52.064;5.116;2023-03-01T18:48:51;10.40;;;3.35;;
69931;SDS011;57243;52.064;5.116;2023-03-01T18:51:19;8.00;;;3.20;;
69931;SDS011;57243;52.064;5.116;2023-03-01T18:53:47;9.32;;;3.30;;
69931;SDS011;57243;52.064;5.116;2023-03-01T18:56:13;9.18;;;3.30;;
69931;SDS011;57243;52.064;5.116;2023-03-01T18:58:39;10.75;;;3.05;;
69931;SDS011;57243;52.064;5.116;2023-03-01T19:01:11;6.00;;;2.90;;
69931;SDS011;57243;52.064;5.116;2023-03-01T19:03:38;10.23;;;2.88;;
69931;SDS011;57243;52.064;5.116;2023-03-01T19:06:04;11.73;;;2.90;;
69931;SDS011;57243;52.064;5.116;2023-03-01T19:08:30;9.83;;;2.93;;
69931;SDS011;57243;52.064;5.116;2023-03-01T19:10:56;12.90;;;3.10;;
69931;SDS011;57243;52.064;5.116;2023-03-01T19:13:23;9.65;;;2.83;;
69931;SDS011;57243;52.064;5.116;2023-03-01T19:15:49;8.13;;;2.90;;
69931;SDS011;57243;52.064;5.116;2023-03-01T19:18:15;8.20;;;2.53;;
69931;SDS011;57243;52.064;5.116;2023-03-01T19:20:41;16.98;;;3.67;;
69931;SDS011;57243;52.064;5.116;2023-03-01T19:23:07;12.30;;;2.77;;
69931;SDS011;57243;52.064;5.116;2023-03-01T19:25:33;7.78;;;2.70;;
69931;SDS011;57243;52.064;5.116;2023-03-01T19:27:58;10.23;;;3.08;;
69931;SDS011;57243;52.064;5.116;2023-03-01T19:30:24;8.90;;;2.65;;
69931;SDS011;57243;52.064;5.116;2023-03-01T19:32:51;9.05;;;2.70;;
69931;SDS011;57243;52.064;5.116;2023-03-01T19:35:17;6.13;;;2.70;;
69931;SDS011;57243;52.064;5.116;2023-03-01T19:37:42;8.93;;;3.10;;
69931;SDS011;57243;52.064;5.116;2023-03-01T19:40:08;8.40;;;2.43;;
69931;SDS011;57243;52.064;5.116;2023-03-01T19:42:34;10.40;;;2.47;;
69931;SDS011;57243;52.064;5.116;2023-03-01T19:45:00;6.80;;;2.50;;
69931;SDS011;57243;52.064;5.116;2023-03-01T19:47:26;6.10;;;2.27;;
69931;SDS011;57243;52.064;5.116;2023-03-01T19:49:51;5.35;;;2.10;;
69931;SDS011;57243;52.064;5.116;2023-03-01T19:52:17;6.43;;;2.23;;
69931;SDS011;57243;52.064;5.116;2023-03-01T19:54:42;5.27;;;2.53;;
69931;SDS011;57243;52.064;5.116;2023-03-01T19:57:08;9.90;;;2.53;;
69931;SDS011;57243;52.064;5.116;2023-03-01T19:59:34;5.17;;;2.27;;
69931;SDS011;57243;52.064;5.116;2023-03-01T20:01:59;7.40;;;2.08;;
69931;SDS011;57243;52.064;5.116;2023-03-01T20:04:25;5.70;;;2.20;;
69931;SDS011;57243;52.064;5.116;2023-03-01T20:06:50;8.60;;;2.30;;
69931;SDS011;57243;52.064;5.116;2023-03-01T20:09:16;4.63;;;1.90;;
69931;SDS011;57243;52.064;5.116;2023-03-01T20:11:42;3.00;;;1.90;;
69931;SDS011;57243;52.064;5.116;2023-03-01T20:14:08;4.37;;;1.80;;
69931;SDS011;57243;52.064;5.116;2023-03-01T20:16:36;5.80;;;2.03;;
69931;SDS011;57243;52.064;5.116;2023-03-01T20:19:05;4.75;;;2.13;;
69931;SDS011;57243;52.064;5.116;2023-03-01T20:21:31;6.47;;;2.00;;
69931;SDS011;57243;52.064;5.116;2023-03-01T20:23:59;4.85;;;1.98;;
69931;SDS011;57243;52.064;5.116;2023-03-01T20:26:25;4.53;;;1.97;;
69931;SDS011;57243;52.064;5.116;2023-03-01T20:28:51;3.42;;;1.70;;
69931;SDS011;57243;52.064;5.116;2023-03-01T20:31:19;4.90;;;1.85;;
69931;SDS011;57243;52.064;5.116;2023-03-01T20:33:47;4.03;;;1.98;;
69931;SDS011;57243;52.064;5.116;2023-03-01T20:36:13;5.13;;;2.08;;
69931;SDS011;57243;52.064;5.116;2023-03-01T20:38:39;6.97;;;2.28;;
69931;SDS011;57243;52.064;5.116;2023-03-01T20:41:06;10.40;;;2.17;;
69931;SDS011;57243;52.064;5.116;2023-03-01T20:43:33;4.03;;;2.00;;
69931;SDS011;57243;52.064;5.116;2023-03-01T20:46:06;4.60;;;2.10;;
69931;SDS011;57243;52.064;5.116;2023-03-01T20:48:36;7.13;;;1.90;;
69931;SDS011;57243;52.064;5.116;2023-03-01T20:51:04;4.53;;;2.10;;
69931;SDS011;57243;52.064;5.116;2023-03-01T20:53:31;4.47;;;2.00;;
69931;SDS011;57243;52.064;5.116;2023-03-01T20:56:00;6.57;;;1.85;;
69931;SDS011;57243;52.064;5.116;2023-03-01T20:58:27;5.03;;;2.35;;
69931;SDS011;57243;52.064;5.116;2023-03-01T21:00:56;3.95;;;1.83;;
69931;SDS011;57243;52.064;5.116;2023-03-01T21:03:22;6.07;;;1.90;;
69931;SDS011;57243;52.064;5.116;2023-03-01T21:05:48;8.57;;;2.00;;
69931;SDS011;57243;52.064;5.116;2023-03-01T21:08:13;4.17;;;1.60;;
69931;SDS011;57243;52.064;5.116;2023-03-01T21:10:39;3.83;;;1.80;;
69931;SDS011;57243;52.064;5.116;2023-03-01T21:13:05;5.00;;;2.00;;
69931;SDS011;57243;52.064;5.116;2023-03-01T21:15:30;5.57;;;1.80;;
69931;SDS011;57243;52.064;5.116;2023-03-01T21:17:56;6.13;;;1.80;;
69931;SDS011;57243;52.064;5.116;2023-03-01T21:20:21;4.93;;;1.80;;
69931;SDS011;57243;52.064;5.116;2023-03-01T21:22:47;7.45;;;1.88;;
69931;SDS011;57243;52.064;5.116;2023-03-01T21:25:13;5.63;;;2.00;;
69931;SDS011;57243;52.064;5.116;2023-03-01T21:27:39;5.93;;;1.83;;
69931;SDS011;57243;52.064;5.116;2023-03-01T21:30:04;2.57;;;1.30;;
69931;SDS011;57243;52.064;5.116;2023-03-01T21:32:30;5.30;;;1.95;;
69931;SDS011;57243;52.064;5.116;2023-03-01T21:34:56;6.10;;;2.00;;
69931;SDS011;57243;52.064;5.116;2023-03-01T21:37:23;5.22;;;1.90;;
69931;SDS011;57243;52.064;5.116;2023-03-01T21:39:51;6.60;;;1.73;;
69931;SDS011;57243;52.064;5.116;2023-03-01T21:42:17;5.53;;;1.60;;
69931;SDS011;57243;52.064;5.116;2023-03-01T21:44:42;5.78;;;1.80;;
69931;SDS011;57243;52.064;5.116;2023-03-01T21:47:08;4.83;;;1.63;;
69931;SDS011;57243;52.064;5.116;2023-03-01T21:49:34;4.85;;;1.80;;
69931;SDS011;57243;52.064;5.116;2023-03-01T21:52:01;5.22;;;1.75;;
69931;SDS011;57243;52.064;5.116;2023-03-01T21:54:27;9.43;;;2.47;;
69931;SDS011;57243;52.064;5.116;2023-03-01T21:56:52;5.63;;;1.93;;
69931;SDS011;57243;52.064;5.116;2023-03-01T21:59:19;5.65;;;1.80;;
69931;SDS011;57243;52.064;5.116;2023-03-01T22:01:47;6.90;;;1.70;;
69931;SDS011;57243;52.064;5.116;2023-03-01T22:04:13;6.45;;;1.63;;
69931;SDS011;57243;52.064;5.116;2023-03-01T22:06:41;7.32;;;1.80;;
69931;SDS011;57243;52.064;5.116;2023-03-01T22:09:25;6.57;;;1.77;;
69931;SDS011;57243;52.064;5.116;2023-03-01T22:11:52;6.15;;;1.80;;
69931;SDS011;57243;52.064;5.116;2023-03-01T22:14:22;5.93;;;1.70;;
69931;SDS011;57243;52.064;5.116;2023-03-01T22:16:48;4.78;;;2.00;;
69931;SDS011;57243;52.064;5.116;2023-03-01T22:19:15;3.90;;;1.90;;
69931;SDS011;57243;52.064;5.116;2023-03-01T22:21:42;7.13;;;2.17;;
69931;SDS011;57243;52.064;5.116;2023-03-01T22:24:10;4.88;;;1.98;;
69931;SDS011;57243;52.064;5.116;2023-03-01T22:26:39;4.95;;;1.88;;
69931;SDS011;57243;52.064;5.116;2023-03-01T22:29:08;6.20;;;1.95;;
69931;SDS011;57243;52.064;5.116;2023-03-01T22:31:38;5.40;;;2.10;;
69931;SDS011;57243;52.064;5.116;2023-03-01T22:34:04;6.03;;;2.00;;
69931;SDS011;57243;52.064;5.116;2023-03-01T22:36:30;5.60;;;2.20;;
69931;SDS011;57243;52.064;5.116;2023-03-01T22:38:56;5.53;;;2.33;;
69931;SDS011;57243;52.064;5.116;2023-03-01T22:41:30;6.53;;;1.92;;
69931;SDS011;57243;52.064;5.116;2023-03-01T22:43:57;5.70;;;1.92;;
69931;SDS011;57243;52.064;5.116;2023-03-01T22:46:23;3.90;;;1.98;;
69931;SDS011;57243;52.064;5.116;2023-03-01T22:48:49;6.78;;;2.25;;
69931;SDS011;57243;52.064;5.116;2023-03-01T22:53:46;5.28;;;1.90;;
69931;SDS011;57243;52.064;5.116;2023-03-01T22:56:16;6.97;;;2.53;;
69931;SDS011;57243;52.064;5.116;2023-03-01T22:58:43;3.97;;;1.80;;
69931;SDS011;57243;52.064;5.116;2023-03-01T23:01:10;4.72;;;2.13;;
69931;SDS011;57243;52.064;5.116;2023-03-01T23:03:47;4.85;;;2.30;;
69931;SDS011;57243;52.064;5.116;2023-03-01T23:06:14;6.38;;;2.50;;
69931;SDS011;57243;52.064;5.116;2023-03-01T23:08:41;3.80;;;2.00;;
69931;SDS011;57243;52.064;5.116;2023-03-01T23:11:08;4.63;;;2.05;;
69931;SDS011;57243;52.064;5.116;2023-03-01T23:13:36;5.57;;;2.47;;
69931;SDS011;57243;52.064;5.116;2023-03-01T23:16:02;6.35;;;2.10;;
69931;SDS011;57243;52.064;5.116;2023-03-01T23:18:27;5.43;;;2.33;;
69931;SDS011;57243;52.064;5.116;2023-03-01T23:20:53;5.28;;;2.30;;
69931;SDS011;57243;52.064;5.116;2023-03-01T23:23:19;6.17;;;2.70;;
69931;SDS011;57243;52.064;5.116;2023-03-01T23:25:55;4.60;;;2.33;;
69931;SDS011;57243;52.064;5.116;2023-03-01T23:28:21;7.35;;;2.72;;
69931;SDS011;57243;52.064;5.116;2023-03-01T23:30:57;6.63;;;2.27;;
69931;SDS011;57243;52.064;5.116;2023-03-01T23:33:25;6.47;;;2.38;;
69931;SDS011;57243;52.064;5.116;2023-03-01T23:35:51;6.45;;;2.53;;
69931;SDS011;57243;52.064;5.116;2023-03-01T23:38:17;5.30;;;2.90;;
69931;SDS011;57243;52.064;5.116;2023-03-01T23:40:44;5.80;;;2.80;;
69931;SDS011;57243;52.064;5.116;2023-03-01T23:43:09;4.35;;;2.78;;
69931;SDS011;57243;52.064;5.116;2023-03-01T23:45:38;5.83;;;2.57;;
69931;SDS011;57243;52.064;5.116;2023-03-01T23:48:08;5.05;;;2.60;;
69931;SDS011;57243;52.064;5.116;2023-03-01T23:50:35;4.45;;;2.50;;
69931;SDS011;57243;52.064;5.116;2023-03-01T23:53:05;4.82;;;2.60;;
69931;SDS011;57243;52.064;5.116;2023-03-01T23:55:42;6.38;;;2.95;;
69931;SDS011;57243;52.064;5.116;2023-03-01T23:58:13;6.65;;;3.28;;
